Time;durP1;ratioP1;P1;durP2;ratioP2;P2;SDS_P1;SDS_P2;PMS_P1;PMS_P2;Temp;Humidity;BMP_temperature;BMP_pressure;BME280_temperature;BME280_humidity;BME280_pressure;Samples;Min_cycle;Max_cycle;Signal;HPM_P1;HPM_P2
2023/11/27 00:00:26;;;;;;;6.57;3.08;;;;;;;4.93;99.26;100187.59;4971203;28;20034;-72
2023/11/27 00:02:52;;;;;;;5.18;3.50;;;;;;;4.96;99.12;100186.94;4958428;28;20077;-72
2023/11/27 00:05:19;;;;;;;6.00;3.55;;;;;;;5.07;98.19;100186.19;4958010;28;20433;-72
2023/11/27 00:07:44;;;;;;;6.68;3.00;;;;;;;5.07;97.88;100188.84;4970751;28;20113;-72
2023/11/27 00:10:10;;;;;;;5.18;2.97;;;;;;;5.04;97.57;100186.84;4956789;28;20039;-72
2023/11/27 00:12:35;;;;;;;6.47;3.63;;;;;;;5.08;97.83;100179.75;4975369;28;20453;-72
2023/11/27 00:15:01;;;;;;;5.18;2.95;;;;;;;4.99;98.51;100181.75;4976416;28;20516;-71
2023/11/27 00:17:27;;;;;;;4.00;2.85;;;;;;;5.03;98.63;100171.19;4959200;28;20414;-71
2023/11/27 00:19:53;;;;;;;7.65;3.42;;;;;;;5.04;98.25;100173.50;4957760;28;20174;-72
2023/11/27 00:22:19;;;;;;;7.43;3.60;;;;;;;4.99;98.51;100165.72;4956585;28;20122;-71
2023/11/27 00:24:44;;;;;;;4.07;2.65;;;;;;;5.02;98.30;100161.59;4938284;28;20034;-71
2023/11/27 00:27:11;;;;;;;9.73;3.75;;;;;;;4.97;98.66;100165.28;4968959;28;20030;-72
2023/11/27 00:29:37;;;;;;;5.80;3.88;;;;;;;5.03;98.19;100166.59;4970865;28;20114;-72
2023/11/27 00:32:03;;;;;;;4.90;3.10;;;;;;;5.09;98.67;100162.63;4969331;28;20023;-70
2023/11/27 00:34:29;;;;;;;7.55;4.53;;;;;;;5.08;98.21;100157.63;4956188;28;20030;-72
2023/11/27 00:36:55;;;;;;;6.00;3.50;;;;;;;5.13;97.73;100154.75;4954779;28;20039;-72
2023/11/27 00:39:21;;;;;;;7.45;4.55;;;;;;;5.24;96.47;100151.34;4957989;28;20030;-72
2023/11/27 00:41:47;;;;;;;5.60;3.03;;;;;;;5.20;96.76;100144.31;4942603;28;20041;-70
2023/11/27 00:44:15;;;;;;;6.88;3.78;;;;;;;5.17;96.80;100144.97;4960732;28;20037;-72
2023/11/27 00:46:40;;;;;;;9.25;3.05;;;;;;;5.02;97.88;100145.59;4951388;28;20039;-72
2023/11/27 00:49:07;;;;;;;8.02;4.80;;;;;;;5.08;98.03;100137.06;4951424;28;20038;-72
2023/11/27 00:51:33;;;;;;;4.47;2.75;;;;;;;5.05;97.98;100137.72;4978175;28;20038;-72
2023/11/27 00:53:58;;;;;;;7.93;3.33;;;;;;;4.98;98.41;100136.69;4954081;28;20035;-71
2023/11/27 00:56:24;;;;;;;4.95;3.47;;;;;;;5.05;98.30;100132.38;4971313;28;20027;-72
2023/11/27 00:58:50;;;;;;;3.78;2.60;;;;;;;5.04;98.59;100135.38;4949442;28;20046;-72
2023/11/27 01:01:16;;;;;;;5.50;3.45;;;;;;;5.08;98.90;100133.59;4962723;28;20031;-72
2023/11/27 01:03:42;;;;;;;4.35;3.80;;;;;;;5.18;98.68;100125.19;4933955;28;20030;-72
2023/11/27 01:06:14;;;;;;;4.07;2.47;;;;;;;5.09;98.55;100114.59;4957777;28;20470;-72
2023/11/27 01:08:41;;;;;;;6.20;3.33;;;;;;;5.04;98.47;100114.81;4967937;28;20027;-72
2023/11/27 01:11:07;;;;;;;9.70;3.92;;;;;;;5.14;98.16;100119.75;4974965;28;20039;-72
2023/11/27 01:13:35;;;;;;;8.30;4.13;;;;;;;5.17;98.26;100120.94;4974747;28;20034;-72
2023/11/27 01:16:01;;;;;;;6.50;3.10;;;;;;;5.22;97.46;100121.53;4958828;28;20039;-72
2023/11/27 01:18:27;;;;;;;3.38;3.00;;;;;;;5.20;97.60;100117.63;4971397;28;20031;-72
2023/11/27 01:20:52;;;;;;;7.38;3.72;;;;;;;5.09;98.24;100122.59;4965832;28;20037;-72
2023/11/27 01:23:18;;;;;;;5.57;3.88;;;;;;;5.07;98.08;100113.38;4968487;28;20039;-72
2023/11/27 01:25:44;;;;;;;3.58;2.75;;;;;;;5.10;98.39;100118.06;4971928;28;20046;-71
2023/11/27 01:28:12;;;;;;;8.85;3.47;;;;;;;5.07;98.53;100111.47;4965522;28;20041;-72
2023/11/27 01:30:38;;;;;;;4.45;2.83;;;;;;;5.11;98.35;100109.72;4963284;28;20447;-72
2023/11/27 01:33:07;;;;;;;3.35;2.53;;;;;;;5.21;97.95;100109.28;4976326;28;20087;-72
2023/11/27 01:35:32;;;;;;;5.38;3.38;;;;;;;5.19;98.16;100105.38;4966204;28;20462;-72
2023/11/27 01:37:58;;;;;;;9.07;3.28;;;;;;;5.15;98.31;100109.84;4965984;28;20065;-72
2023/11/27 01:40:23;;;;;;;3.63;3.03;;;;;;;5.15;98.71;100107.19;4975125;28;20126;-72
2023/11/27 01:42:49;;;;;;;5.82;3.47;;;;;;;5.12;98.40;100105.94;4957066;28;20055;-72
2023/11/27 01:45:15;;;;;;;4.13;2.97;;;;;;;5.19;98.03;100097.38;4972374;28;20034;-72
2023/11/27 01:47:40;;;;;;;6.15;3.28;;;;;;;5.22;97.94;100105.50;4974744;28;20026;-72
2023/11/27 01:50:10;;;;;;;8.15;4.22;;;;;;;5.14;97.77;100098.38;4968208;28;20173;-72
2023/11/27 01:52:39;;;;;;;4.75;3.13;;;;;;;5.10;98.36;100102.81;4966601;28;20042;-72
2023/11/27 01:55:05;;;;;;;4.88;2.95;;;;;;;5.26;97.59;100100.28;4967623;28;20421;-72
2023/11/27 01:57:32;;;;;;;4.65;3.28;;;;;;;5.23;97.31;100091.03;4962340;28;20035;-72
2023/11/27 02:00:03;;;;;;;5.13;3.47;;;;;;;5.20;98.46;100098.94;4971952;28;20027;-71
2023/11/27 02:02:44;;;;;;;4.72;2.80;;;;;;;5.19;98.45;100090.16;4970699;28;20437;-71
2023/11/27 02:05:09;;;;;;;5.45;3.42;;;;;;;5.25;97.81;100088.81;4969285;28;20064;-72
2023/11/27 02:07:35;;;;;;;5.32;2.78;;;;;;;5.18;97.66;100085.94;4927482;28;1280908;-72
2023/11/27 02:10:01;;;;;;;6.95;3.47;;;;;;;5.11;98.65;100083.03;4951526;28;20450;-72
2023/11/27 02:12:28;;;;;;;5.72;3.72;;;;;;;5.10;98.81;100078.03;4971394;28;20047;-71
2023/11/27 02:14:53;;;;;;;5.22;3.08;;;;;;;5.10;98.66;100078.81;4961619;28;20077;-72
2023/11/27 02:17:22;;;;;;;3.40;2.40;;;;;;;5.14;98.72;100076.25;4969046;28;20026;-71
2023/11/27 02:19:47;;;;;;;5.63;2.67;;;;;;;5.11;99.33;100071.59;4965491;28;20034;-71
2023/11/27 02:22:13;;;;;;;4.38;2.67;;;;;;;5.22;98.57;100070.81;4951462;28;20038;-72
2023/11/27 02:24:39;;;;;;;2.55;2.13;;;;;;;5.26;97.92;100069.03;4968875;28;20031;-70
2023/11/27 02:27:04;;;;;;;4.38;2.80;;;;;;;5.17;98.09;100072.91;4963468;28;20037;-72
2023/11/27 02:29:32;;;;;;;4.63;3.08;;;;;;;5.20;98.70;100066.91;4966582;28;20031;-72
2023/11/27 02:31:58;;;;;;;5.60;2.97;;;;;;;5.19;98.61;100063.47;4972046;28;20019;-72
2023/11/27 02:34:23;;;;;;;4.72;2.72;;;;;;;5.11;98.89;100064.34;4975063;28;20391;-72
2023/11/27 02:36:49;;;;;;;4.25;2.83;;;;;;;5.20;98.97;100059.69;4972183;28;20555;-72
2023/11/27 02:39:14;;;;;;;3.47;2.55;;;;;;;5.17;98.14;100060.34;4970214;28;20045;-72
2023/11/27 02:41:43;;;;;;;5.07;2.45;;;;;;;5.13;99.22;100054.13;4972949;28;20042;-72
2023/11/27 02:44:09;;;;;;;10.55;2.78;;;;;;;5.13;98.71;100053.38;4968682;28;20049;-72
2023/11/27 02:46:37;;;;;;;7.05;2.38;;;;;;;5.14;99.07;100049.56;4972371;28;20026;-73
2023/11/27 02:49:02;;;;;;;4.82;1.95;;;;;;;5.17;98.94;100055.00;4974803;28;20101;-72
2023/11/27 02:51:28;;;;;;;3.97;2.47;;;;;;;5.02;98.95;100045.00;4971007;28;20561;-72
2023/11/27 02:53:54;;;;;;;6.80;3.05;;;;;;;5.10;99.44;100048.69;4973312;28;20053;-72
2023/11/27 02:56:19;;;;;;;3.45;2.78;;;;;;;5.18;99.07;100037.91;4968256;28;20032;-72
2023/11/27 02:58:45;;;;;;;3.15;2.13;;;;;;;5.27;97.97;100033.22;4970046;28;20518;-72
2023/11/27 03:01:10;;;;;;;3.63;2.22;;;;;;;5.27;97.93;100032.44;4956632;28;20069;-73
2023/11/27 03:03:37;;;;;;;2.17;1.63;;;;;;;5.24;98.73;100033.13;4971731;28;20038;-72
2023/11/27 03:06:03;;;;;;;6.10;2.42;;;;;;;5.28;98.34;100034.78;4973730;28;20038;-73
2023/11/27 03:08:35;;;;;;;3.90;2.08;;;;;;;5.24;97.84;100025.13;4977458;28;20117;-73
2023/11/27 03:11:00;;;;;;;;;;;;;;;5.30;97.37;100031.78;4975971;28;20121;-72
2023/11/27 03:13:25;;;;;;;2.50;1.42;;;;;;;5.30;97.54;100032.53;4972234;28;20444;-72
2023/11/27 03:15:51;;;;;;;4.53;2.55;;;;;;;5.19;97.66;100023.44;4974518;28;20039;-73
2023/11/27 03:18:19;;;;;;;4.82;2.50;;;;;;;5.21;97.79;100023.88;4970223;28;20038;-73
2023/11/27 03:20:45;;;;;;;4.88;2.50;;;;;;;5.20;98.30;100030.34;4976922;28;20031;-72
2023/11/27 03:23:10;;;;;;;1.83;1.60;;;;;;;5.31;97.78;100028.00;4974034;28;20040;-73
2023/11/27 03:25:36;;;;;;;4.40;1.95;;;;;;;5.29;98.44;100030.22;4971667;28;20101;-73
2023/11/27 03:28:01;;;;;;;5.03;2.97;;;;;;;5.26;97.54;100025.56;4962319;28;20038;-73
2023/11/27 03:30:27;;;;;;;3.05;1.75;;;;;;;5.29;96.95;100030.22;4972505;28;20597;-73
2023/11/27 03:32:52;;;;;;;3.90;2.40;;;;;;;5.19;98.20;100018.09;4976639;28;20037;-72
2023/11/27 03:35:17;;;;;;;5.68;2.88;;;;;;;5.14;98.36;100018.34;4970974;28;20027;-72
2023/11/27 03:37:43;;;;;;;3.60;2.58;;;;;;;5.20;98.70;100014.34;4968392;28;20035;-73
2023/11/27 03:40:08;;;;;;;4.30;1.83;;;;;;;5.11;98.70;100018.22;4954248;28;20030;-72
2023/11/27 03:42:34;;;;;;;4.25;3.05;;;;;;;5.12;99.25;100017.09;4961869;28;20062;-73
2023/11/27 03:45:01;;;;;;;4.60;2.22;;;;;;;5.02;98.81;100013.00;4966203;28;20469;-72
2023/11/27 03:47:26;;;;;;;3.30;2.65;;;;;;;4.99;98.55;100005.66;4972490;28;20421;-73
2023/11/27 03:49:55;;;;;;;4.38;2.40;;;;;;;5.06;99.12;100005.09;4965818;28;20030;-73
2023/11/27 03:52:22;;;;;;;2.67;2.05;;;;;;;5.09;99.19;100010.53;4987084;28;20035;-72
2023/11/27 03:54:49;;;;;;;6.32;2.58;;;;;;;5.12;99.60;99999.22;4973080;28;20069;-73
2023/11/27 03:57:14;;;;;;;4.60;2.22;;;;;;;5.11;99.28;99997.66;4969861;28;20038;-73
2023/11/27 03:59:42;;;;;;;5.65;2.50;;;;;;;4.96;99.31;99990.31;4974241;28;20042;-72
2023/11/27 04:02:11;;;;;;;3.70;2.85;;;;;;;5.10;99.70;99982.75;4979379;28;20053;-73
2023/11/27 04:04:37;;;;;;;4.30;2.17;;;;;;;5.24;98.88;99977.09;4990803;28;20035;-72
2023/11/27 04:07:07;;;;;;;3.05;2.47;;;;;;;5.11;99.05;99968.28;4969607;28;20031;-73
2023/11/27 04:09:32;;;;;;;3.10;1.95;;;;;;;5.11;98.54;99972.88;4967096;28;20608;-72
2023/11/27 04:11:58;;;;;;;4.65;2.45;;;;;;;5.08;99.43;99966.31;4974643;28;20027;-72
2023/11/27 04:14:24;;;;;;;4.28;2.33;;;;;;;5.01;99.37;99957.31;4956102;28;20035;-73
2023/11/27 04:16:49;;;;;;;7.63;2.78;;;;;;;5.13;99.48;99963.41;4976362;28;20094;-72
2023/11/27 04:19:15;;;;;;;5.38;2.33;;;;;;;5.15;98.80;99960.41;4972664;28;20031;-73
2023/11/27 04:21:40;;;;;;;2.65;1.70;;;;;;;5.19;98.84;99971.94;4976091;28;20031;-73
2023/11/27 04:24:09;;;;;;;2.42;1.95;;;;;;;5.21;98.15;99967.06;4967710;28;20437;-73
2023/11/27 04:26:34;;;;;;;3.15;1.85;;;;;;;5.25;98.05;99966.06;4975010;28;20057;-72
2023/11/27 04:29:00;;;;;;;2.65;1.55;;;;;;;5.26;98.01;99962.28;4973102;28;20028;-73
2023/11/27 04:31:26;;;;;;;2.72;1.63;;;;;;;5.13;98.65;99970.66;4971850;28;20037;-73
2023/11/27 04:33:51;;;;;;;3.38;2.00;;;;;;;5.17;99.33;99966.97;4970034;28;20035;-72
2023/11/27 04:36:21;;;;;;;2.58;1.33;;;;;;;5.19;98.59;99950.59;4973177;28;20509;-73
2023/11/27 04:38:48;;;;;;;4.18;2.58;;;;;;;5.33;98.25;99957.16;4969011;28;20058;-73
2023/11/27 04:41:14;;;;;;;3.10;1.63;;;;;;;5.26;98.09;99956.16;4971707;28;20050;-73
2023/11/27 04:43:39;;;;;;;2.63;1.42;;;;;;;5.16;98.71;99946.75;4951734;28;20030;-72
2023/11/27 04:46:07;;;;;;;2.40;1.52;;;;;;;5.26;98.75;99940.94;4966676;28;20456;-72
2023/11/27 04:48:35;;;;;;;1.13;1.05;;;;;;;5.23;98.29;99946.16;4973049;28;20516;-73
2023/11/27 04:51:01;;;;;;;2.45;1.15;;;;;;;5.30;98.64;99941.03;4974593;28;20561;-72
2023/11/27 04:53:27;;;;;;;2.15;1.67;;;;;;;5.18;98.73;99946.41;4969389;28;20174;-73
2023/11/27 04:55:52;;;;;;;3.25;1.77;;;;;;;5.20;98.43;99926.28;4967879;28;20121;-72
2023/11/27 04:58:18;;;;;;;2.53;1.50;;;;;;;5.11;99.11;99933.59;4967633;28;20050;-70
2023/11/27 05:00:43;;;;;;;2.25;1.67;;;;;;;5.14;99.33;99932.94;4968344;28;20422;-72
2023/11/27 05:03:09;;;;;;;3.55;1.63;;;;;;;5.06;100.00;99936.50;4969631;28;20031;-73
2023/11/27 05:05:34;;;;;;;3.30;1.83;;;;;;;5.07;99.73;99927.38;4968232;28;20043;-72
2023/11/27 05:07:59;;;;;;;1.10;1.05;;;;;;;5.12;99.12;99939.72;4971298;28;20031;-73
2023/11/27 05:10:25;;;;;;;3.67;1.60;;;;;;;5.09;99.68;99935.84;4966468;28;20762;-73
2023/11/27 05:12:50;;;;;;;6.10;1.58;;;;;;;5.22;99.69;99926.72;4966044;28;20465;-73
2023/11/27 05:15:19;;;;;;;3.00;1.77;;;;;;;5.23;99.07;99938.16;4974546;28;20037;-72
2023/11/27 05:17:46;;;;;;;3.65;1.60;;;;;;;5.23;99.58;99936.25;4974460;28;20034;-71
2023/11/27 05:20:12;;;;;;;0.80;0.80;;;;;;;5.26;98.98;99927.59;4947209;28;20040;-73
2023/11/27 05:22:37;;;;;;;3.10;1.45;;;;;;;5.26;99.39;99930.28;4960941;28;20026;-73
2023/11/27 05:25:06;;;;;;;1.35;0.90;;;;;;;5.25;99.44;99925.25;4964859;28;20037;-72
2023/11/27 05:27:32;;;;;;;2.83;1.08;;;;;;;5.30;98.93;99928.47;4970576;28;20800;-72
2023/11/27 05:29:57;;;;;;;1.40;1.25;;;;;;;5.17;99.41;99921.59;4973965;28;20053;-72
2023/11/27 05:32:23;;;;;;;3.13;1.75;;;;;;;5.16;99.96;99933.41;4967786;28;20037;-72
2023/11/27 05:34:48;;;;;;;0.93;0.93;;;;;;;5.28;98.92;99927.25;4972197;28;20035;-72
2023/11/27 05:37:13;;;;;;;3.35;1.27;;;;;;;5.43;98.77;99922.00;4968100;28;20069;-73
2023/11/27 05:39:41;;;;;;;3.10;1.67;;;;;;;5.35;98.67;99922.91;4971646;28;20030;-72
2023/11/27 05:42:11;;;;;;;0.65;0.60;;;;;;;5.31;99.05;99918.56;4968726;28;20113;-72
2023/11/27 05:44:38;;;;;;;1.80;1.10;;;;;;;5.42;98.76;99923.09;4969075;28;20026;-73
2023/11/27 05:47:04;;;;;;;0.85;0.85;;;;;;;5.35;99.27;99914.91;4974975;28;20296;-71
2023/11/27 05:49:31;;;;;;;1.90;1.05;;;;;;;5.40;99.29;99908.56;4972971;28;20042;-72
2023/11/27 05:51:57;;;;;;;1.58;1.27;;;;;;;5.49;98.25;99912.63;4969295;28;20106;-73
2023/11/27 05:54:25;;;;;;;1.25;1.15;;;;;;;5.46;98.26;99907.16;4972386;28;20050;-72
2023/11/27 05:56:50;;;;;;;1.02;0.93;;;;;;;5.32;99.02;99894.19;4968621;28;20110;-73
2023/11/27 05:59:16;;;;;;;0.73;0.73;;;;;;;5.41;98.76;99892.19;4971440;28;20106;-73
2023/11/27 06:01:44;;;;;;;1.02;0.88;;;;;;;5.37;99.10;99888.63;4969340;28;20042;-72
2023/11/27 06:04:10;;;;;;;1.10;1.00;;;;;;;5.36;99.46;99892.41;4970676;28;20042;-73
2023/11/27 06:06:38;;;;;;;0.98;0.70;;;;;;;5.36;99.42;99892.41;4982208;28;20030;-72
2023/11/27 06:09:04;;;;;;;1.80;1.25;;;;;;;5.41;99.47;99884.19;4956271;28;21445;-73
2023/11/27 06:11:30;;;;;;;2.03;1.17;;;;;;;5.52;99.39;99894.38;4973223;28;20529;-73
2023/11/27 06:13:56;;;;;;;1.52;1.13;;;;;;;5.41;98.87;99889.53;4972865;28;20570;-73
2023/11/27 06:16:25;;;;;;;5.32;1.08;;;;;;;5.45;99.19;99894.94;4958650;28;20066;-73
2023/11/27 06:18:52;;;;;;;1.02;0.93;;;;;;;5.43;99.16;99892.63;4958809;28;20070;-72
2023/11/27 06:21:17;;;;;;;1.92;1.15;;;;;;;5.65;98.55;99882.53;4956726;28;20037;-73
2023/11/27 06:23:42;;;;;;;0.55;0.55;;;;;;;5.54;98.21;99879.56;4955996;28;20035;-72
2023/11/27 06:26:12;;;;;;;0.95;0.90;;;;;;;5.48;98.97;99884.38;4978094;28;20591;-73
2023/11/27 06:28:38;;;;;;;1.23;0.88;;;;;;;5.58;99.07;99887.66;4972672;28;20034;-73
2023/11/27 06:31:03;;;;;;;2.13;1.00;;;;;;;5.46;98.94;99873.25;4955891;28;20122;-73
2023/11/27 06:33:29;;;;;;;1.55;1.17;;;;;;;5.49;99.11;99885.94;4952837;28;20561;-73
2023/11/27 06:35:54;;;;;;;1.17;0.90;;;;;;;5.38;99.46;99870.75;4958652;28;20038;-73
2023/11/27 06:38:20;;;;;;;1.30;1.15;;;;;;;5.46;99.21;99881.25;4974170;28;20596;-73
2023/11/27 06:40:48;;;;;;;1.10;1.00;;;;;;;5.52;99.02;99871.09;4938702;28;20065;-73
2023/11/27 06:43:15;;;;;;;1.05;0.80;;;;;;;5.63;98.50;99869.53;4972340;28;20039;-73
2023/11/27 06:45:41;;;;;;;0.70;0.70;;;;;;;5.55;98.97;99872.34;4953787;28;20121;-73
2023/11/27 06:48:06;;;;;;;1.27;0.75;;;;;;;5.61;98.40;99876.31;4973181;28;20125;-72
2023/11/27 06:50:32;;;;;;;0.82;0.77;;;;;;;5.53;98.66;99854.75;4955381;28;20035;-72
2023/11/27 06:52:57;;;;;;;0.80;0.80;;;;;;;5.47;99.19;99866.81;4970403;28;20482;-73
2023/11/27 06:55:23;;;;;;;0.82;0.82;;;;;;;5.62;98.64;99857.28;4952280;28;20039;-73
2023/11/27 06:57:49;;;;;;;0.80;0.70;;;;;;;5.62;98.61;99857.28;4963777;28;20077;-72
2023/11/27 07:00:17;;;;;;;0.65;0.65;;;;;;;5.53;99.27;99852.06;4973579;28;20097;-73
2023/11/27 07:02:43;;;;;;;0.68;0.68;;;;;;;5.49;99.18;99859.25;4972993;28;20054;-73
2023/11/27 07:05:09;;;;;;;0.70;0.70;;;;;;;5.59;99.46;99854.50;4950141;28;20035;-73
2023/11/27 07:07:35;;;;;;;1.17;0.93;;;;;;;5.52;99.00;99859.69;4957761;28;20041;-73
2023/11/27 07:10:02;;;;;;;1.15;0.88;;;;;;;5.46;99.46;99859.91;4974418;28;20486;-73
2023/11/27 07:12:32;;;;;;;0.75;0.75;;;;;;;5.50;100.00;99854.66;4972451;28;20054;-73
2023/11/27 07:14:58;;;;;;;1.35;1.25;;;;;;;5.47;100.00;99856.13;4962172;28;20031;-72
2023/11/27 07:17:24;;;;;;;1.60;0.95;;;;;;;5.59;99.38;99863.31;4974995;28;20034;-73
2023/11/27 07:19:49;;;;;;;1.30;1.00;;;;;;;5.58;99.52;99860.97;4973418;28;20046;-73
2023/11/27 07:22:16;;;;;;;0.47;0.43;;;;;;;5.53;98.52;99861.22;4975220;28;20031;-73
2023/11/27 07:24:41;;;;;;;1.00;0.95;;;;;;;5.56;99.21;99847.97;4974371;28;20034;-73
2023/11/27 07:27:07;;;;;;;0.65;0.55;;;;;;;5.53;98.91;99852.06;4978653;28;20035;-73
2023/11/27 07:29:33;;;;;;;1.13;0.95;;;;;;;5.57;99.46;99852.19;4977451;28;20107;-73
2023/11/27 07:31:58;;;;;;;1.85;0.80;;;;;;;5.49;98.03;99848.56;4973603;28;20037;-73
2023/11/27 07:34:26;;;;;;;0.70;0.70;;;;;;;5.42;99.05;99848.34;4974819;28;20034;-73
2023/11/27 07:36:52;;;;;;;0.57;0.50;;;;;;;5.42;100.00;99853.69;4987182;28;20085;-73
2023/11/27 07:39:17;;;;;;;1.45;1.05;;;;;;;5.46;99.61;99848.44;4977109;28;20034;-72
2023/11/27 07:41:45;;;;;;;1.27;1.17;;;;;;;5.55;99.39;99845.63;4978780;28;20055;-73
2023/11/27 07:44:12;;;;;;;0.68;0.68;;;;;;;5.56;98.81;99844.50;4960318;28;20030;-73
2023/11/27 07:46:38;;;;;;;1.17;0.82;;;;;;;5.48;98.87;99847.00;4989491;28;20041;-72
2023/11/27 07:49:08;;;;;;;1.25;1.00;;;;;;;5.46;99.34;99843.88;4971461;28;20096;-73
2023/11/27 07:51:34;;;;;;;1.00;0.95;;;;;;;5.50;99.22;99843.97;4986670;28;20049;-73
2023/11/27 07:54:00;;;;;;;1.75;1.30;;;;;;;5.47;99.15;99853.47;4954205;28;20031;-73
2023/11/27 07:56:27;;;;;;;0.88;0.60;;;;;;;5.39;99.56;99848.25;4974540;28;20054;-73
2023/11/27 07:58:54;;;;;;;1.08;0.80;;;;;;;5.46;99.83;99849.22;4973614;28;20039;-73
2023/11/27 08:01:20;;;;;;;0.95;0.43;;;;;;;5.47;99.79;99850.78;4977658;28;20030;-72
2023/11/27 08:03:47;;;;;;;1.60;0.80;;;;;;;5.45;99.52;99841.56;4973628;28;20118;-73
2023/11/27 08:06:13;;;;;;;3.20;0.85;;;;;;;5.49;99.36;99843.22;4971957;28;20058;-72
2023/11/27 08:08:38;;;;;;;0.93;0.93;;;;;;;5.52;99.17;99838.31;4969967;28;20548;-73
2023/11/27 08:11:04;;;;;;;2.40;1.50;;;;;;;5.56;99.08;99833.81;4973019;28;20809;-73
2023/11/27 08:13:30;;;;;;;1.50;1.00;;;;;;;5.37;99.35;99837.94;4954626;28;20038;-73
2023/11/27 08:15:57;;;;;;;2.85;0.98;;;;;;;5.30;99.35;99837.72;4971477;28;20035;-73
2023/11/27 08:18:24;;;;;;;1.98;1.08;;;;;;;5.41;99.56;99832.69;4973241;28;20039;-73
2023/11/27 08:20:50;;;;;;;3.45;1.30;;;;;;;5.47;99.56;99834.00;4972493;28;20057;-73
2023/11/27 08:23:16;;;;;;;0.75;0.75;;;;;;;5.39;99.15;99822.34;4975140;28;20026;-73
2023/11/27 08:25:45;;;;;;;1.88;1.23;;;;;;;5.39;98.91;99827.69;4946641;28;20490;-73
2023/11/27 08:28:11;;;;;;;2.35;1.27;;;;;;;5.34;99.48;99833.25;4973180;28;20045;-73
2023/11/27 08:30:36;;;;;;;2.95;1.67;;;;;;;5.34;99.84;99827.16;4957081;28;20023;-73
2023/11/27 08:33:02;;;;;;;2.47;0.95;;;;;;;5.52;99.04;99824.97;4955256;28;20026;-72
2023/11/27 08:35:27;;;;;;;0.65;0.57;;;;;;;5.52;98.21;99809.72;4953041;28;20033;-72
2023/11/27 08:37:53;;;;;;;1.63;0.75;;;;;;;5.50;98.75;99812.72;4951547;28;20026;-73
2023/11/27 08:40:20;;;;;;;0.85;0.85;;;;;;;5.56;98.13;99812.47;4951957;28;20406;-72
2023/11/27 08:42:45;;;;;;;0.93;0.82;;;;;;;5.48;97.91;99809.63;4970645;28;20113;-72
2023/11/27 08:45:13;;;;;;;0.98;0.65;;;;;;;5.23;98.64;99807.38;4955628;28;20227;-73
2023/11/27 08:47:40;;;;;;;1.58;1.48;;;;;;;5.26;99.23;99802.16;4970362;28;20046;-73
2023/11/27 08:50:10;;;;;;;1.50;1.05;;;;;;;5.14;100.00;99810.22;4953130;28;20039;-73
2023/11/27 08:52:36;;;;;;;1.20;1.10;;;;;;;5.33;99.38;99807.69;4954873;28;20031;-73
2023/11/27 08:55:05;;;;;;;0.80;0.65;;;;;;;5.46;98.42;99808.41;4954566;28;20057;-73
2023/11/27 08:57:30;;;;;;;0.80;0.75;;;;;;;5.40;98.43;99807.88;4955677;28;20122;-73
2023/11/27 08:59:56;;;;;;;1.05;0.95;;;;;;;5.30;99.60;99792.34;4971229;28;20114;-73
2023/11/27 09:02:21;;;;;;;6.07;0.75;;;;;;;5.22;98.68;99790.63;4957668;28;20035;-73
2023/11/27 09:04:46;;;;;;;1.83;0.80;;;;;;;5.32;99.22;99803.44;4952598;28;20059;-72
2023/11/27 09:07:12;;;;;;;2.25;0.85;;;;;;;5.22;99.04;99805.84;4958451;28;20466;-73
2023/11/27 09:09:37;;;;;;;1.00;0.80;;;;;;;5.20;99.90;99800.06;4977116;28;20048;-73
2023/11/27 09:12:03;;;;;;;2.08;0.80;;;;;;;5.25;99.50;99799.81;4971032;28;20031;-72
2023/11/27 09:14:29;;;;;;;0.70;0.70;;;;;;;5.25;99.81;99811.28;4971077;28;20031;-72
2023/11/27 09:16:54;;;;;;;1.33;0.80;;;;;;;5.42;98.15;99805.63;4971349;28;20058;-73
2023/11/27 09:19:20;;;;;;;1.27;0.68;;;;;;;5.34;98.34;99809.22;4957036;28;20038;-73
2023/11/27 09:21:48;;;;;;;0.50;0.50;;;;;;;5.36;98.87;99808.91;4972573;28;20053;-73
2023/11/27 09:24:14;;;;;;;0.50;0.50;;;;;;;5.34;98.39;99803.13;4952201;28;20042;-71
2023/11/27 09:26:42;;;;;;;1.10;0.95;;;;;;;5.34;99.02;99801.22;4966545;28;20035;-72
2023/11/27 09:29:09;;;;;;;0.50;0.50;;;;;;;5.45;97.88;99788.97;4983909;28;20169;-73
2023/11/27 09:31:34;;;;;;;0.98;0.75;;;;;;;5.35;98.15;99794.78;4973399;28;20413;-73
2023/11/27 09:34:00;;;;;;;0.75;0.75;;;;;;;5.24;98.38;99782.25;4966953;28;20076;-73
2023/11/27 09:36:26;;;;;;;1.23;1.02;;;;;;;5.13;98.88;99786.53;4966558;28;20080;-73
2023/11/27 09:38:52;;;;;;;0.70;0.70;;;;;;;5.16;99.24;99783.19;4967980;28;20037;-73
2023/11/27 09:41:17;;;;;;;1.05;1.05;;;;;;;5.24;99.86;99792.94;4973523;28;20616;-73
2023/11/27 09:43:43;;;;;;;0.47;0.47;;;;;;;5.39;98.81;99784.97;4976768;28;20038;-73
2023/11/27 09:46:17;;;;;;;1.52;1.27;;;;;;;5.36;98.13;99785.63;4969913;28;20039;-73
2023/11/27 09:48:44;;;;;;;2.90;1.23;;;;;;;5.32;98.20;99784.00;4971494;28;20027;-73
2023/11/27 09:51:13;;;;;;;1.42;1.20;;;;;;;5.19;98.01;99790.50;4976454;28;20027;-73
2023/11/27 09:53:47;;;;;;;1.15;1.05;;;;;;;5.18;98.54;99784.41;4968608;28;20034;-72
2023/11/27 09:56:13;;;;;;;1.48;1.02;;;;;;;5.22;98.52;99784.50;4971344;28;20031;-72
2023/11/27 09:58:42;;;;;;;0.90;0.82;;;;;;;5.23;98.48;99780.69;4970276;28;20516;-73
2023/11/27 10:01:11;;;;;;;0.93;0.90;;;;;;;5.24;97.49;99772.38;4971898;28;20481;-73
2023/11/27 10:03:41;;;;;;;1.27;1.05;;;;;;;5.18;97.25;99767.63;4976317;28;20030;-73
2023/11/27 10:06:07;;;;;;;0.98;0.95;;;;;;;5.25;98.10;99763.25;4970825;28;20022;-73
2023/11/27 10:08:33;;;;;;;0.82;0.82;;;;;;;5.16;97.65;99767.19;4954690;28;20393;-73
2023/11/27 10:10:58;;;;;;;1.38;0.90;;;;;;;5.13;97.82;99770.53;4970972;28;20557;-73
2023/11/27 10:13:36;;;;;;;1.52;0.85;;;;;;;5.17;97.73;99756.16;4978016;28;20022;-73
2023/11/27 10:16:05;;;;;;;0.73;0.73;;;;;;;5.17;97.50;99748.16;4974551;28;20035;-72
2023/11/27 10:18:33;;;;;;;0.50;0.50;;;;;;;5.11;97.86;99744.19;4968245;28;20045;-72
2023/11/27 10:20:59;;;;;;;0.73;0.73;;;;;;;5.08;97.86;99741.41;4970668;28;20126;-72
2023/11/27 10:23:27;;;;;;;0.65;0.65;;;;;;;5.09;97.94;99738.41;4952653;28;20117;-73
2023/11/27 10:25:57;;;;;;;2.17;1.02;;;;;;;5.10;97.63;99737.31;4972399;28;20041;-73
2023/11/27 10:28:23;;;;;;;1.13;1.05;;;;;;;5.05;98.37;99724.19;4970811;28;20027;-73
2023/11/27 10:30:51;;;;;;;0.60;0.60;;;;;;;5.18;97.54;99727.59;4974602;28;20117;-73
2023/11/27 10:33:17;;;;;;;0.60;0.60;;;;;;;5.26;96.64;99730.13;4987323;28;20027;-73
2023/11/27 10:35:46;;;;;;;1.92;1.05;;;;;;;5.17;96.07;99718.81;4982208;28;20037;-73
2023/11/27 10:38:18;;;;;;;1.27;1.00;;;;;;;5.10;96.50;99721.28;4970404;28;20043;-73
2023/11/27 10:40:46;;;;;;;0.77;0.77;;;;;;;5.12;97.06;99719.06;4970948;28;20441;-73
2023/11/27 10:43:13;;;;;;;1.23;0.77;;;;;;;5.06;97.36;99717.75;4975664;28;20031;-73
2023/11/27 10:45:40;;;;;;;2.17;0.90;;;;;;;5.15;97.33;99715.69;4973619;28;20043;-73
2023/11/27 10:48:08;;;;;;;0.80;0.80;;;;;;;5.19;97.33;99711.22;4973021;28;20076;-72
2023/11/27 10:50:35;;;;;;;0.60;0.60;;;;;;;5.18;97.49;99707.03;4975721;28;20050;-73
2023/11/27 10:53:05;;;;;;;0.60;0.60;;;;;;;5.08;97.63;99706.72;4974108;28;20813;-72
2023/11/27 10:55:35;;;;;;;0.75;0.75;;;;;;;5.11;97.56;99703.41;4974036;28;20113;-73
2023/11/27 10:58:02;;;;;;;0.60;0.60;;;;;;;4.99;98.26;99696.22;4972592;28;20058;-73
2023/11/27 11:00:56;;;;;;;2.55;1.45;;;;;;;5.17;98.05;99692.13;4974809;28;20029;-73
2023/11/27 11:03:15;;;;;;;1.20;0.73;;;;;;;5.22;97.16;99685.78;4970351;28;20046;-73
2023/11/27 11:05:47;;;;;;;0.50;0.50;;;;;;;5.13;96.59;99693.91;4975975;28;20058;-73
2023/11/27 11:08:13;;;;;;;1.33;0.73;;;;;;;4.98;97.54;99681.34;4977296;28;20090;-74
2023/11/27 11:10:40;;;;;;;0.98;0.88;;;;;;;5.07;97.65;99681.94;4972456;28;20039;-73
2023/11/27 11:13:13;;;;;;;1.23;0.98;;;;;;;5.07;98.93;99676.59;4969899;28;20377;-73
2023/11/27 11:16:14;;;;;;;3.25;1.65;;;;;;;5.04;97.12;99666.63;4968605;28;20125;-73
2023/11/27 11:18:43;;;;;;;3.03;1.97;;;;;;;5.18;97.71;99663.56;4973046;28;20049;-72
2023/11/27 11:21:55;;;;;;;3.75;2.47;;;;;;;5.19;97.51;99665.88;4970972;28;20293;-73
2023/11/27 11:24:57;;;;;;;2.47;1.10;;;;;;;5.24;97.35;99657.63;4954778;28;20145;-73
2023/11/27 11:28:25;;;;;;;1.13;0.88;;;;;;;5.16;97.17;99657.78;4968511;28;20039;-73
2023/11/27 11:31:23;;;;;;;2.08;1.02;;;;;;;5.11;97.49;99656.13;4960071;28;20095;-73
2023/11/27 11:33:49;;;;;;;1.05;0.95;;;;;;;5.17;97.23;99654.75;4973106;28;20395;-73
2023/11/27 11:36:32;;;;;;;1.08;0.95;;;;;;;5.12;97.93;99651.59;4969722;28;20085;-73
2023/11/27 11:38:58;;;;;;;0.85;0.80;;;;;;;5.23;96.82;99649.94;4957770;28;20023;-73